Salida, CO

1:50 PM MDT on July 23, 2016 (GMT -0600)
Salida

Weather History for KANK - February, 2014

Change the Weather History Date:

Wednesday, February 26, 2014

  Actual Average (KGUC) Record (KGUC)
Temperature  
Mean Temperature 34 °F -  
Max Temperature 54 °F 30 °F 46 °F (2014)
Min Temperature 14 °F 8 °F -7 °F (2006)
Degree Days  
Heating Degree Days 31    
Moisture  
Dew Point 13 °F    
Average Humidity 51    
Maximum Humidity 86    
Minimum Humidity 18    
Precipitation  
Precipitation 0.00 in - - ()
Sea Level Pressure  
Sea Level Pressure 30.08 in    
Wind  
Wind Speed 6 mph (SW)    
Max Wind Speed 18 mph    
Max Gust Speed 28 mph    
Visibility 10 miles    
Events      
Averages and records for this station are not official NWS values.
T = Trace of Precipitation, MM = Missing Value Source: NWS Daily Summary

Daily Weather History Graph

Daily Weather History Graph

Search for Another Location

Airport or City:

Trip Planner

Search our weather history database for the weather conditions in past years. The results will help you decide how hot, cold, wet, or windy it might be!

Date:

Astronomy

Feb. 26, 2014 Rise Set
Actual Time 6:40 AM MST 5:54 PM MST
Civil Twilight 6:13 AM MST 6:20 PM MST
Nautical Twilight 5:43 AM MST 6:51 PM MST
Astronomical Twilight 5:12 AM MST 7:22 PM MST
Moon 4:27 AM MST (2/26) 3:13 PM MST (2/26)
Length of Visible Light 12h 07m
Length of Day
11h 13m
Waning Crescent, 9% of the Moon is Illuminated
Feb 26
Waning Crescent
Mar 1
New
Mar 8
First Quarter
Mar 16
Full
Mar 23
Last Quarter

Hourly Weather History & Observations

Time (MST) Temp. Windchill Dew Point Humidity Pressure Visibility Wind Dir Wind Speed Gust Speed Precip Events Conditions
12:15 AM 16.7 °F 3.8 °F 11.3 °F 79% 30.17 in 10.0 mi SE 11.5 mph 20.7 mph N/A   Clear
12:35 AM 16.3 °F 4.1 °F 10.9 °F 79% 30.17 in 10.0 mi SE 10.4 mph 16.1 mph N/A   Clear
12:55 AM 16.2 °F 5.5 °F 10.9 °F 80% 30.17 in 10.0 mi SE 8.1 mph - N/A   Clear
1:15 AM 15.8 °F 4.2 °F 10.6 °F 80% 30.17 in 10.0 mi SE 9.2 mph - N/A   Clear
1:35 AM 15.8 °F 7.2 °F 10.8 °F 80% 30.17 in 10.0 mi SE 5.8 mph - N/A   Clear
1:55 AM 15.8 °F 7.2 °F 10.9 °F 81% 30.17 in 10.0 mi SE 5.8 mph - N/A   Clear
2:15 AM 16.3 °F 9.2 °F 11.1 °F 80% 30.16 in 10.0 mi SE 4.6 mph - N/A   Clear
2:35 AM 16.2 °F - 11.3 °F 81% 30.15 in 10.0 mi Calm Calm - N/A   Clear
2:55 AM 15.6 °F - 10.8 °F 81% 30.15 in 10.0 mi Calm Calm - N/A   Clear
3:15 AM 14.9 °F - 10.8 °F 84% 30.14 in 10.0 mi Calm Calm - N/A   Clear
3:35 AM 15.6 °F - 10.8 °F 81% 30.14 in 10.0 mi Calm Calm - N/A   Scattered Clouds
3:55 AM 14.2 °F - 10.0 °F 84% 30.13 in 10.0 mi Calm Calm - N/A   Scattered Clouds
4:15 AM 14.9 °F - 10.4 °F 82% 30.13 in 10.0 mi Calm Calm - N/A   Scattered Clouds
4:35 AM 15.3 °F - 10.9 °F 83% 30.12 in 10.0 mi Calm Calm - N/A   Clear
4:55 AM 14.7 °F 7.3 °F 10.4 °F 83% 30.12 in 10.0 mi West 4.6 mph - N/A   Clear
5:15 AM 15.8 °F - 11.3 °F 82% 30.12 in 10.0 mi Calm Calm - N/A   Clear
5:35 AM 16.0 °F - 11.1 °F 81% 30.11 in 10.0 mi Calm Calm - N/A   Clear
5:55 AM 14.5 °F - 10.6 °F 84% 30.11 in 10.0 mi Calm Calm - N/A   Clear
6:15 AM 14.9 °F - 11.1 °F 85% 30.10 in 10.0 mi Calm Calm - N/A   Clear
6:35 AM 15.1 °F 9.4 °F 11.7 °F 86% 30.10 in 10.0 mi WSW 3.5 mph - N/A   Clear
6:55 AM 16.2 °F - 12.0 °F 84% 30.11 in 10.0 mi Calm Calm - N/A   Clear
7:15 AM 17.6 °F - 12.9 °F 82% 30.11 in 10.0 mi Calm Calm - N/A   Clear
7:35 AM 20.3 °F - 14.0 °F 77% 30.12 in 10.0 mi Calm Calm - N/A   Clear
7:55 AM 21.4 °F - 14.5 °F 75% 30.12 in 10.0 mi Calm Calm - N/A   Clear
8:15 AM 22.6 °F - 14.7 °F 72% 30.11 in 10.0 mi Calm Calm - N/A   Clear
8:35 AM 23.4 °F - 14.7 °F 70% 30.11 in 10.0 mi Calm Calm - N/A   Clear
8:55 AM 24.8 °F - 15.3 °F 67% 30.11 in 10.0 mi Calm Calm - N/A   Clear
9:15 AM 27.7 °F - 15.8 °F 61% 30.10 in 10.0 mi Calm Calm - N/A   Clear
9:35 AM 31.3 °F - 16.9 °F 55% 30.09 in 10.0 mi Calm Calm - N/A   Clear
9:55 AM 34.0 °F - 17.6 °F 51% 30.09 in 10.0 mi Calm Calm - N/A   Clear
10:15 AM 36.3 °F - 17.6 °F 47% 30.09 in 10.0 mi Calm Calm - N/A   Clear
10:35 AM 40.6 °F - 18.5 °F 41% 30.08 in 10.0 mi Calm Calm - N/A   Clear
10:55 AM 42.6 °F 40.9 °F 18.9 °F 39% 30.07 in 10.0 mi North 3.5 mph - N/A   Clear
11:15 AM 46.4 °F 45.2 °F 18.3 °F 33% 30.06 in 10.0 mi NE 3.5 mph - N/A   Clear
11:35 AM 51.8 °F - 16.7 °F 25% 30.05 in 10.0 mi WSW 10.4 mph 17.3 mph N/A   Clear
11:55 AM 53.6 °F - 15.1 °F 22% 30.05 in 10.0 mi WSW 9.2 mph 18.4 mph N/A   Clear
12:15 PM 54.0 °F - 14.5 °F 21% 30.04 in 10.0 mi West 12.7 mph 18.4 mph N/A   Clear
12:35 PM 52.0 °F - 13.6 °F 22% 30.04 in 10.0 mi West 11.5 mph 17.3 mph N/A   Clear
12:55 PM 53.2 °F - 15.3 °F 22% 30.03 in 10.0 mi West 13.8 mph 21.9 mph N/A   Clear
1:15 PM 53.8 °F - 14.4 °F 21% 30.02 in 10.0 mi West 13.8 mph 21.9 mph N/A   Clear
1:35 PM 54.1 °F - 13.8 °F 20% 30.01 in 10.0 mi West 16.1 mph 23.0 mph N/A   Scattered Clouds
1:55 PM 54.3 °F - 12.9 °F 19% 30.00 in 10.0 mi WSW 13.8 mph 19.6 mph N/A   Scattered Clouds
2:15 PM 54.5 °F - 11.7 °F 18% 30.00 in 10.0 mi WSW 13.8 mph 19.6 mph N/A   Clear
2:35 PM 54.9 °F - 11.7 °F 18% 30.00 in 10.0 mi WNW 12.7 mph 21.9 mph N/A   Clear
2:55 PM 54.5 °F - 10.9 °F 18% 30.00 in 10.0 mi West 16.1 mph 19.6 mph N/A   Clear
3:15 PM 53.8 °F - 10.2 °F 18% 30.00 in 10.0 mi West 18.4 mph 23.0 mph N/A   Clear
3:35 PM 53.8 °F - 12.7 °F 20% 30.01 in 10.0 mi WSW 16.1 mph 25.3 mph N/A   Clear
3:55 PM 52.7 °F - 13.5 °F 21% 30.01 in 10.0 mi WSW 16.1 mph 27.6 mph N/A   Clear
4:15 PM 51.4 °F - 14.4 °F 23% 30.01 in 10.0 mi WSW 17.3 mph 25.3 mph N/A   Clear
4:35 PM 50.9 °F - 15.3 °F 24% 30.02 in 10.0 mi WSW 13.8 mph 23.0 mph N/A   Clear
4:55 PM 49.6 °F - 14.7 °F 25% 30.02 in 10.0 mi WSW 15.0 mph 20.7 mph N/A   Clear
5:15 PM 48.2 °F - 14.9 °F 26% 30.02 in 10.0 mi WSW 17.3 mph 23.0 mph N/A   Scattered Clouds
5:35 PM 45.9 °F 39.4 °F 15.6 °F 30% 30.03 in 10.0 mi WSW 15.0 mph 23.0 mph N/A   Scattered Clouds
5:55 PM 45.3 °F 38.1 °F 16.3 °F 31% 30.04 in 10.0 mi WSW 17.3 mph 24.2 mph N/A   Clear
6:15 PM 43.7 °F 36.9 °F 16.2 °F 33% 30.04 in 10.0 mi WSW 13.8 mph - N/A   Clear
6:35 PM 42.8 °F 36.2 °F 15.8 °F 34% 30.05 in 10.0 mi WSW 12.7 mph - N/A   Clear
6:55 PM 42.8 °F 40.1 °F 15.8 °F 34% 30.06 in 10.0 mi SW 4.6 mph - N/A   Clear
7:15 PM 40.5 °F 35.8 °F 13.1 °F 33% 30.06 in 10.0 mi ESE 6.9 mph - N/A   Clear
7:35 PM 37.9 °F 34.4 °F 12.4 °F 35% 30.07 in 10.0 mi ESE 4.6 mph - N/A   Clear
7:55 PM 36.7 °F 31.2 °F 12.9 °F 38% 30.07 in 10.0 mi ESE 6.9 mph - N/A   Scattered Clouds
8:15 PM 36.7 °F 32.0 °F 12.6 °F 37% 30.07 in 10.0 mi SE 5.8 mph - N/A   Scattered Clouds
8:35 PM 33.6 °F - 12.7 °F 42% 30.07 in 10.0 mi Calm Calm - N/A   Clear
8:55 PM 32.7 °F - 13.3 °F 45% 30.08 in 10.0 mi Calm Calm - N/A   Scattered Clouds
9:15 PM 33.6 °F 29.4 °F 13.1 °F 43% 30.08 in 10.0 mi ESE 4.6 mph - N/A   Clear
9:35 PM 33.8 °F 28.6 °F 13.5 °F 43% 30.07 in 10.0 mi SE 5.8 mph - N/A   Clear
9:55 PM 33.4 °F - 13.6 °F 44% 30.08 in 10.0 mi Calm Calm - N/A   Clear
10:15 PM 31.3 °F - 13.5 °F 48% 30.08 in 10.0 mi Calm Calm - N/A   Clear
10:35 PM 32.4 °F - 14.0 °F 47% 30.07 in 10.0 mi Calm Calm - N/A   Clear
10:55 PM 29.3 °F - 14.0 °F 53% 30.07 in 10.0 mi Calm Calm - N/A   Clear
11:15 PM 28.9 °F - 13.8 °F 53% 30.07 in 10.0 mi Calm Calm - N/A   Clear
11:35 PM 28.9 °F - 13.8 °F 53% 30.06 in 10.0 mi Calm Calm - N/A   Clear
11:55 PM 28.0 °F - 13.8 °F 55% 30.05 in 10.0 mi Calm Calm - N/A   Clear